sensor_id;sensor_type;location;lat;lon;timestamp;P1;durP1;ratioP1;P2;durP2;ratioP2
27857;SDS011;16852;51.446;6.528;2023-04-15T00:01:10;5.50;;;3.55;;
27857;SDS011;16852;51.446;6.528;2023-04-15T00:03:12;6.07;;;3.22;;
27857;SDS011;16852;51.446;6.528;2023-04-15T00:05:13;7.70;;;3.67;;
27857;SDS011;16852;51.446;6.528;2023-04-15T00:07:13;6.18;;;3.50;;
27857;SDS011;16852;51.446;6.528;2023-04-15T00:09:14;7.50;;;4.05;;
27857;SDS011;16852;51.446;6.528;2023-04-15T00:11:15;6.63;;;3.50;;
27857;SDS011;16852;51.446;6.528;2023-04-15T00:13:15;5.97;;;3.60;;
27857;SDS011;16852;51.446;6.528;2023-04-15T00:15:16;5.90;;;3.53;;
27857;SDS011;16852;51.446;6.528;2023-04-15T00:17:17;6.55;;;3.90;;
27857;SDS011;16852;51.446;6.528;2023-04-15T00:19:17;7.28;;;3.88;;
27857;SDS011;16852;51.446;6.528;2023-04-15T00:21:18;5.55;;;3.60;;
27857;SDS011;16852;51.446;6.528;2023-04-15T00:23:19;7.40;;;3.67;;
27857;SDS011;16852;51.446;6.528;2023-04-15T00:25:19;6.80;;;3.67;;
27857;SDS011;16852;51.446;6.528;2023-04-15T00:27:20;7.88;;;4.25;;
27857;SDS011;16852;51.446;6.528;2023-04-15T00:29:21;8.07;;;4.00;;
27857;SDS011;16852;51.446;6.528;2023-04-15T00:31:21;6.57;;;4.05;;
27857;SDS011;16852;51.446;6.528;2023-04-15T00:33:22;7.45;;;4.18;;
27857;SDS011;16852;51.446;6.528;2023-04-15T00:35:22;7.18;;;4.20;;
27857;SDS011;16852;51.446;6.528;2023-04-15T00:37:23;6.30;;;3.78;;
27857;SDS011;16852;51.446;6.528;2023-04-15T00:39:24;6.28;;;3.95;;
27857;SDS011;16852;51.446;6.528;2023-04-15T00:41:24;7.88;;;4.10;;
27857;SDS011;16852;51.446;6.528;2023-04-15T00:43:25;8.32;;;4.53;;
27857;SDS011;16852;51.446;6.528;2023-04-15T00:45:26;5.68;;;4.03;;
27857;SDS011;16852;51.446;6.528;2023-04-15T00:47:27;8.35;;;3.88;;
27857;SDS011;16852;51.446;6.528;2023-04-15T00:49:28;9.95;;;4.30;;
27857;SDS011;16852;51.446;6.528;2023-04-15T00:51:29;7.00;;;4.28;;
27857;SDS011;16852;51.446;6.528;2023-04-15T00:55:33;6.97;;;4.05;;
27857;SDS011;16852;51.446;6.528;2023-04-15T00:57:34;9.75;;;4.80;;
27857;SDS011;16852;51.446;6.528;2023-04-15T00:59:35;7.53;;;3.72;;
27857;SDS011;16852;51.446;6.528;2023-04-15T01:01:36;7.60;;;4.68;;
27857;SDS011;16852;51.446;6.528;2023-04-15T01:03:37;8.13;;;4.50;;
27857;SDS011;16852;51.446;6.528;2023-04-15T01:05:38;9.68;;;5.20;;
27857;SDS011;16852;51.446;6.528;2023-04-15T01:07:38;9.35;;;4.85;;
27857;SDS011;16852;51.446;6.528;2023-04-15T01:09:39;10.35;;;5.32;;
27857;SDS011;16852;51.446;6.528;2023-04-15T01:11:41;9.70;;;4.85;;
27857;SDS011;16852;51.446;6.528;2023-04-15T01:13:42;11.93;;;5.20;;
27857;SDS011;16852;51.446;6.528;2023-04-15T01:15:42;8.10;;;4.93;;
27857;SDS011;16852;51.446;6.528;2023-04-15T01:17:43;8.68;;;5.05;;
27857;SDS011;16852;51.446;6.528;2023-04-15T01:19:44;6.57;;;4.40;;
27857;SDS011;16852;51.446;6.528;2023-04-15T01:21:45;7.03;;;4.55;;
27857;SDS011;16852;51.446;6.528;2023-04-15T01:23:46;8.13;;;4.30;;
27857;SDS011;16852;51.446;6.528;2023-04-15T01:25:48;8.10;;;4.60;;
27857;SDS011;16852;51.446;6.528;2023-04-15T01:27:49;8.98;;;5.43;;
27857;SDS011;16852;51.446;6.528;2023-04-15T01:29:50;7.32;;;4.63;;
27857;SDS011;16852;51.446;6.528;2023-04-15T01:31:51;8.50;;;4.57;;
27857;SDS011;16852;51.446;6.528;2023-04-15T01:33:53;8.73;;;4.90;;
27857;SDS011;16852;51.446;6.528;2023-04-15T01:35:53;6.47;;;3.95;;
27857;SDS011;16852;51.446;6.528;2023-04-15T01:37:54;7.53;;;4.20;;
27857;SDS011;16852;51.446;6.528;2023-04-15T01:40:03;10.05;;;4.10;;
27857;SDS011;16852;51.446;6.528;2023-04-15T01:42:05;5.90;;;3.97;;
27857;SDS011;16852;51.446;6.528;2023-04-15T01:44:05;10.30;;;4.43;;
27857;SDS011;16852;51.446;6.528;2023-04-15T01:46:25;8.43;;;4.53;;
27857;SDS011;16852;51.446;6.528;2023-04-15T01:48:45;7.05;;;4.45;;
27857;SDS011;16852;51.446;6.528;2023-04-15T01:51:04;5.95;;;4.30;;
27857;SDS011;16852;51.446;6.528;2023-04-15T01:53:24;7.85;;;4.75;;
27857;SDS011;16852;51.446;6.528;2023-04-15T01:55:43;6.88;;;3.95;;
27857;SDS011;16852;51.446;6.528;2023-04-15T01:58:03;7.15;;;3.90;;
27857;SDS011;16852;51.446;6.528;2023-04-15T02:00:22;9.02;;;4.55;;
27857;SDS011;16852;51.446;6.528;2023-04-15T02:02:42;9.82;;;4.90;;
27857;SDS011;16852;51.446;6.528;2023-04-15T02:05:02;7.40;;;4.28;;
27857;SDS011;16852;51.446;6.528;2023-04-15T02:07:22;7.28;;;4.22;;
27857;SDS011;16852;51.446;6.528;2023-04-15T02:09:42;11.77;;;4.65;;
27857;SDS011;16852;51.446;6.528;2023-04-15T02:12:01;6.35;;;4.32;;
27857;SDS011;16852;51.446;6.528;2023-04-15T02:14:21;7.18;;;4.47;;
27857;SDS011;16852;51.446;6.528;2023-04-15T02:16:40;12.07;;;4.97;;
27857;SDS011;16852;51.446;6.528;2023-04-15T02:18:59;9.98;;;4.70;;
27857;SDS011;16852;51.446;6.528;2023-04-15T02:21:18;7.90;;;4.65;;
27857;SDS011;16852;51.446;6.528;2023-04-15T02:23:37;7.20;;;4.53;;
27857;SDS011;16852;51.446;6.528;2023-04-15T02:25:56;9.82;;;5.05;;
27857;SDS011;16852;51.446;6.528;2023-04-15T02:28:17;10.68;;;5.20;;
27857;SDS011;16852;51.446;6.528;2023-04-15T02:30:36;8.15;;;4.55;;
27857;SDS011;16852;51.446;6.528;2023-04-15T02:32:55;10.30;;;4.75;;
27857;SDS011;16852;51.446;6.528;2023-04-15T02:35:14;9.75;;;4.85;;
27857;SDS011;16852;51.446;6.528;2023-04-15T02:37:37;7.63;;;4.80;;
27857;SDS011;16852;51.446;6.528;2023-04-15T02:40:01;9.02;;;5.13;;
27857;SDS011;16852;51.446;6.528;2023-04-15T02:42:20;5.90;;;4.40;;
27857;SDS011;16852;51.446;6.528;2023-04-15T02:44:39;8.60;;;4.90;;
27857;SDS011;16852;51.446;6.528;2023-04-15T02:46:59;7.57;;;4.93;;
27857;SDS011;16852;51.446;6.528;2023-04-15T02:49:18;8.88;;;5.05;;
27857;SDS011;16852;51.446;6.528;2023-04-15T02:51:40;6.53;;;4.25;;
27857;SDS011;16852;51.446;6.528;2023-04-15T02:53:59;9.88;;;5.53;;
27857;SDS011;16852;51.446;6.528;2023-04-15T02:56:19;12.60;;;5.70;;
27857;SDS011;16852;51.446;6.528;2023-04-15T02:58:41;12.20;;;6.18;;
27857;SDS011;16852;51.446;6.528;2023-04-15T03:01:01;7.43;;;4.93;;
27857;SDS011;16852;51.446;6.528;2023-04-15T03:03:20;8.80;;;4.93;;
27857;SDS011;16852;51.446;6.528;2023-04-15T03:05:39;8.85;;;5.22;;
27857;SDS011;16852;51.446;6.528;2023-04-15T03:07:58;7.25;;;4.35;;
27857;SDS011;16852;51.446;6.528;2023-04-15T03:10:19;8.50;;;5.28;;
27857;SDS011;16852;51.446;6.528;2023-04-15T03:12:38;9.23;;;5.18;;
27857;SDS011;16852;51.446;6.528;2023-04-15T03:14:58;7.75;;;5.45;;
27857;SDS011;16852;51.446;6.528;2023-04-15T03:17:19;9.57;;;5.50;;
27857;SDS011;16852;51.446;6.528;2023-04-15T03:19:39;9.32;;;5.40;;
27857;SDS011;16852;51.446;6.528;2023-04-15T03:21:58;9.45;;;6.03;;
27857;SDS011;16852;51.446;6.528;2023-04-15T03:24:19;9.23;;;5.22;;
27857;SDS011;16852;51.446;6.528;2023-04-15T03:26:38;8.52;;;4.57;;
27857;SDS011;16852;51.446;6.528;2023-04-15T03:28:58;8.02;;;5.05;;
27857;SDS011;16852;51.446;6.528;2023-04-15T03:31:17;9.63;;;5.72;;
27857;SDS011;16852;51.446;6.528;2023-04-15T03:33:36;9.82;;;5.68;;
27857;SDS011;16852;51.446;6.528;2023-04-15T03:35:55;11.23;;;6.50;;
27857;SDS011;16852;51.446;6.528;2023-04-15T03:38:15;9.60;;;5.93;;
27857;SDS011;16852;51.446;6.528;2023-04-15T03:40:34;9.60;;;6.00;;
27857;SDS011;16852;51.446;6.528;2023-04-15T03:42:53;7.15;;;5.10;;
27857;SDS011;16852;51.446;6.528;2023-04-15T03:45:12;9.63;;;5.78;;
27857;SDS011;16852;51.446;6.528;2023-04-15T03:47:32;7.03;;;5.03;;
27857;SDS011;16852;51.446;6.528;2023-04-15T03:49:51;6.68;;;4.93;;
27857;SDS011;16852;51.446;6.528;2023-04-15T03:52:10;8.35;;;5.00;;
27857;SDS011;16852;51.446;6.528;2023-04-15T03:54:29;8.30;;;5.30;;
27857;SDS011;16852;51.446;6.528;2023-04-15T03:56:48;8.50;;;5.20;;
27857;SDS011;16852;51.446;6.528;2023-04-15T03:59:07;7.78;;;4.72;;
27857;SDS011;16852;51.446;6.528;2023-04-15T04:01:27;8.65;;;5.30;;
27857;SDS011;16852;51.446;6.528;2023-04-15T04:03:46;8.10;;;5.07;;
27857;SDS011;16852;51.446;6.528;2023-04-15T04:06:05;6.78;;;4.65;;
27857;SDS011;16852;51.446;6.528;2023-04-15T04:08:25;8.07;;;5.55;;
27857;SDS011;16852;51.446;6.528;2023-04-15T04:10:45;8.35;;;5.32;;
27857;SDS011;16852;51.446;6.528;2023-04-15T04:13:04;12.40;;;6.30;;
27857;SDS011;16852;51.446;6.528;2023-04-15T04:15:23;9.80;;;6.38;;
27857;SDS011;16852;51.446;6.528;2023-04-15T04:17:43;8.80;;;5.60;;
27857;SDS011;16852;51.446;6.528;2023-04-15T04:19:43;11.75;;;6.40;;
27857;SDS011;16852;51.446;6.528;2023-04-15T04:21:44;12.68;;;6.50;;
27857;SDS011;16852;51.446;6.528;2023-04-15T04:23:45;10.20;;;6.95;;
27857;SDS011;16852;51.446;6.528;2023-04-15T04:25:45;9.18;;;6.40;;
27857;SDS011;16852;51.446;6.528;2023-04-15T04:27:46;9.80;;;6.60;;
27857;SDS011;16852;51.446;6.528;2023-04-15T04:29:47;9.23;;;5.80;;
27857;SDS011;16852;51.446;6.528;2023-04-15T04:31:48;9.35;;;6.13;;
27857;SDS011;16852;51.446;6.528;2023-04-15T04:33:49;11.52;;;6.85;;
27857;SDS011;16852;51.446;6.528;2023-04-15T04:35:50;8.50;;;5.90;;
27857;SDS011;16852;51.446;6.528;2023-04-15T04:37:51;9.73;;;6.15;;
27857;SDS011;16852;51.446;6.528;2023-04-15T04:39:52;8.43;;;5.32;;
27857;SDS011;16852;51.446;6.528;2023-04-15T04:41:53;8.38;;;5.25;;
27857;SDS011;16852;51.446;6.528;2023-04-15T04:43:53;9.73;;;5.30;;
27857;SDS011;16852;51.446;6.528;2023-04-15T04:45:54;7.07;;;4.88;;
27857;SDS011;16852;51.446;6.528;2023-04-15T04:47:55;9.52;;;5.70;;
27857;SDS011;16852;51.446;6.528;2023-04-15T04:49:56;7.80;;;4.93;;
27857;SDS011;16852;51.446;6.528;2023-04-15T04:51:56;7.28;;;5.22;;
27857;SDS011;16852;51.446;6.528;2023-04-15T04:53:57;8.00;;;4.65;;
27857;SDS011;16852;51.446;6.528;2023-04-15T04:55:58;7.47;;;5.03;;
27857;SDS011;16852;51.446;6.528;2023-04-15T04:57:58;7.55;;;5.22;;
27857;SDS011;16852;51.446;6.528;2023-04-15T04:59:59;8.00;;;5.30;;
27857;SDS011;16852;51.446;6.528;2023-04-15T05:02:00;7.40;;;4.90;;
27857;SDS011;16852;51.446;6.528;2023-04-15T05:04:02;8.13;;;4.88;;
27857;SDS011;16852;51.446;6.528;2023-04-15T05:06:03;7.00;;;4.57;;
27857;SDS011;16852;51.446;6.528;2023-04-15T05:08:06;7.40;;;5.03;;
27857;SDS011;16852;51.446;6.528;2023-04-15T05:10:07;6.53;;;4.80;;
27857;SDS011;16852;51.446;6.528;2023-04-15T05:12:08;7.50;;;4.95;;
27857;SDS011;16852;51.446;6.528;2023-04-15T05:14:13;8.10;;;4.57;;
27857;SDS011;16852;51.446;6.528;2023-04-15T05:16:14;7.10;;;5.38;;
27857;SDS011;16852;51.446;6.528;2023-04-15T05:18:15;8.10;;;5.32;;
27857;SDS011;16852;51.446;6.528;2023-04-15T05:20:16;8.18;;;5.55;;
27857;SDS011;16852;51.446;6.528;2023-04-15T05:22:17;7.60;;;5.50;;
27857;SDS011;16852;51.446;6.528;2023-04-15T05:24:17;7.82;;;5.30;;
27857;SDS011;16852;51.446;6.528;2023-04-15T05:26:18;8.10;;;5.93;;
27857;SDS011;16852;51.446;6.528;2023-04-15T05:28:20;6.85;;;5.25;;
27857;SDS011;16852;51.446;6.528;2023-04-15T05:30:21;7.43;;;5.30;;
27857;SDS011;16852;51.446;6.528;2023-04-15T05:32:21;9.65;;;5.65;;
27857;SDS011;16852;51.446;6.528;2023-04-15T05:34:22;8.15;;;5.85;;
27857;SDS011;16852;51.446;6.528;2023-04-15T05:36:23;8.27;;;5.53;;
27857;SDS011;16852;51.446;6.528;2023-04-15T05:38:23;7.43;;;5.05;;
27857;SDS011;16852;51.446;6.528;2023-04-15T05:40:24;7.38;;;4.97;;
27857;SDS011;16852;51.446;6.528;2023-04-15T05:42:24;6.75;;;5.45;;
27857;SDS011;16852;51.446;6.528;2023-04-15T05:44:25;5.85;;;4.72;;
27857;SDS011;16852;51.446;6.528;2023-04-15T05:46:44;7.60;;;5.82;;
27857;SDS011;16852;51.446;6.528;2023-04-15T05:48:56;11.05;;;6.13;;
27857;SDS011;16852;51.446;6.528;2023-04-15T05:50:57;7.97;;;5.80;;
27857;SDS011;16852;51.446;6.528;2023-04-15T05:52:58;8.98;;;5.82;;
27857;SDS011;16852;51.446;6.528;2023-04-15T05:54:59;7.90;;;6.50;;
27857;SDS011;16852;51.446;6.528;2023-04-15T05:56:59;9.80;;;5.97;;
27857;SDS011;16852;51.446;6.528;2023-04-15T05:59:00;8.73;;;6.25;;
27857;SDS011;16852;51.446;6.528;2023-04-15T06:01:01;9.95;;;6.90;;
27857;SDS011;16852;51.446;6.528;2023-04-15T06:03:02;8.15;;;6.10;;
27857;SDS011;16852;51.446;6.528;2023-04-15T06:05:03;8.77;;;6.25;;
27857;SDS011;16852;51.446;6.528;2023-04-15T06:07:08;8.63;;;6.18;;
27857;SDS011;16852;51.446;6.528;2023-04-15T06:09:09;10.32;;;6.75;;
27857;SDS011;16852;51.446;6.528;2023-04-15T06:11:10;9.82;;;6.95;;
27857;SDS011;16852;51.446;6.528;2023-04-15T06:13:10;9.05;;;6.63;;
27857;SDS011;16852;51.446;6.528;2023-04-15T06:15:11;9.15;;;6.40;;
27857;SDS011;16852;51.446;6.528;2023-04-15T06:17:12;10.35;;;6.78;;
27857;SDS011;16852;51.446;6.528;2023-04-15T06:19:14;8.48;;;6.18;;
27857;SDS011;16852;51.446;6.528;2023-04-15T06:21:14;11.27;;;7.05;;
27857;SDS011;16852;51.446;6.528;2023-04-15T06:23:15;12.07;;;7.63;;
27857;SDS011;16852;51.446;6.528;2023-04-15T06:25:16;10.65;;;7.70;;
27857;SDS011;16852;51.446;6.528;2023-04-15T06:27:16;11.77;;;8.48;;
27857;SDS011;16852;51.446;6.528;2023-04-15T06:29:17;10.68;;;7.40;;
27857;SDS011;16852;51.446;6.528;2023-04-15T06:31:18;11.65;;;8.00;;
27857;SDS011;16852;51.446;6.528;2023-04-15T06:33:19;10.68;;;7.65;;
27857;SDS011;16852;51.446;6.528;2023-04-15T06:35:19;14.27;;;9.07;;
27857;SDS011;16852;51.446;6.528;2023-04-15T06:37:21;13.43;;;9.35;;
27857;SDS011;16852;51.446;6.528;2023-04-15T06:39:21;13.05;;;9.38;;
27857;SDS011;16852;51.446;6.528;2023-04-15T06:41:22;14.35;;;9.93;;
27857;SDS011;16852;51.446;6.528;2023-04-15T06:43:22;11.55;;;8.35;;
27857;SDS011;16852;51.446;6.528;2023-04-15T06:45:23;12.63;;;8.25;;
27857;SDS011;16852;51.446;6.528;2023-04-15T06:47:24;12.13;;;8.55;;
27857;SDS011;16852;51.446;6.528;2023-04-15T06:49:25;11.55;;;7.93;;
27857;SDS011;16852;51.446;6.528;2023-04-15T06:51:26;12.52;;;7.95;;
27857;SDS011;16852;51.446;6.528;2023-04-15T06:53:26;11.57;;;8.35;;
27857;SDS011;16852;51.446;6.528;2023-04-15T06:55:27;11.75;;;8.10;;
27857;SDS011;16852;51.446;6.528;2023-04-15T06:57:27;11.98;;;8.27;;
27857;SDS011;16852;51.446;6.528;2023-04-15T06:59:28;10.93;;;8.23;;
27857;SDS011;16852;51.446;6.528;2023-04-15T07:01:29;11.32;;;8.18;;
27857;SDS011;16852;51.446;6.528;2023-04-15T07:03:29;11.38;;;9.02;;
27857;SDS011;16852;51.446;6.528;2023-04-15T07:05:30;12.98;;;9.00;;
27857;SDS011;16852;51.446;6.528;2023-04-15T07:07:31;13.98;;;9.32;;
27857;SDS011;16852;51.446;6.528;2023-04-15T07:09:32;13.57;;;8.73;;
27857;SDS011;16852;51.446;6.528;2023-04-15T07:11:33;15.15;;;10.25;;
27857;SDS011;16852;51.446;6.528;2023-04-15T07:13:33;13.23;;;8.93;;
27857;SDS011;16852;51.446;6.528;2023-04-15T07:15:34;11.15;;;8.45;;
27857;SDS011;16852;51.446;6.528;2023-04-15T07:17:35;11.02;;;8.13;;
27857;SDS011;16852;51.446;6.528;2023-04-15T07:19:36;11.15;;;7.72;;
27857;SDS011;16852;51.446;6.528;2023-04-15T07:21:37;11.98;;;8.30;;
27857;SDS011;16852;51.446;6.528;2023-04-15T07:23:38;12.55;;;7.80;;
27857;SDS011;16852;51.446;6.528;2023-04-15T07:25:38;11.95;;;8.23;;
27857;SDS011;16852;51.446;6.528;2023-04-15T07:27:39;11.65;;;8.55;;
27857;SDS011;16852;51.446;6.528;2023-04-15T07:29:39;10.40;;;7.95;;
27857;SDS011;16852;51.446;6.528;2023-04-15T07:31:40;12.93;;;8.93;;
27857;SDS011;16852;51.446;6.528;2023-04-15T07:33:41;11.85;;;8.27;;
27857;SDS011;16852;51.446;6.528;2023-04-15T07:35:41;13.00;;;8.25;;
27857;SDS011;16852;51.446;6.528;2023-04-15T07:37:42;10.32;;;7.28;;
27857;SDS011;16852;51.446;6.528;2023-04-15T07:39:43;8.77;;;6.85;;
27857;SDS011;16852;51.446;6.528;2023-04-15T07:41:43;10.05;;;7.20;;
27857;SDS011;16852;51.446;6.528;2023-04-15T07:43:44;10.88;;;7.20;;
27857;SDS011;16852;51.446;6.528;2023-04-15T07:45:44;11.35;;;7.50;;
27857;SDS011;16852;51.446;6.528;2023-04-15T07:47:45;9.98;;;7.45;;
27857;SDS011;16852;51.446;6.528;2023-04-15T07:49:46;10.27;;;6.85;;
27857;SDS011;16852;51.446;6.528;2023-04-15T07:51:47;8.65;;;6.32;;
27857;SDS011;16852;51.446;6.528;2023-04-15T07:53:48;9.02;;;6.32;;
27857;SDS011;16852;51.446;6.528;2023-04-15T07:55:49;7.15;;;5.65;;
27857;SDS011;16852;51.446;6.528;2023-04-15T07:57:50;7.28;;;5.70;;
27857;SDS011;16852;51.446;6.528;2023-04-15T07:59:50;8.93;;;5.78;;
27857;SDS011;16852;51.446;6.528;2023-04-15T08:01:51;6.18;;;5.10;;
27857;SDS011;16852;51.446;6.528;2023-04-15T08:03:52;7.22;;;5.40;;
27857;SDS011;16852;51.446;6.528;2023-04-15T08:05:52;5.97;;;4.65;;
27857;SDS011;16852;51.446;6.528;2023-04-15T08:07:53;7.90;;;4.90;;
27857;SDS011;16852;51.446;6.528;2023-04-15T08:09:53;6.35;;;4.70;;
27857;SDS011;16852;51.446;6.528;2023-04-15T08:11:54;6.35;;;4.50;;
27857;SDS011;16852;51.446;6.528;2023-04-15T08:13:56;7.43;;;4.13;;
27857;SDS011;16852;51.446;6.528;2023-04-15T08:16:13;4.78;;;3.65;;
27857;SDS011;16852;51.446;6.528;2023-04-15T08:18:21;5.07;;;3.72;;
27857;SDS011;16852;51.446;6.528;2023-04-15T08:20:21;5.13;;;4.10;;
27857;SDS011;16852;51.446;6.528;2023-04-15T08:22:22;8.68;;;4.18;;
27857;SDS011;16852;51.446;6.528;2023-04-15T08:24:23;4.07;;;3.17;;
27857;SDS011;16852;51.446;6.528;2023-04-15T08:26:25;4.75;;;3.58;;
27857;SDS011;16852;51.446;6.528;2023-04-15T08:28:25;4.57;;;3.17;;
27857;SDS011;16852;51.446;6.528;2023-04-15T08:30:26;3.72;;;3.22;;
27857;SDS011;16852;51.446;6.528;2023-04-15T08:32:27;5.85;;;3.40;;
27857;SDS011;16852;51.446;6.528;2023-04-15T08:34:28;3.80;;;2.78;;
27857;SDS011;16852;51.446;6.528;2023-04-15T08:36:29;4.05;;;2.70;;
27857;SDS011;16852;51.446;6.528;2023-04-15T08:38:31;4.00;;;3.00;;
27857;SDS011;16852;51.446;6.528;2023-04-15T08:40:34;4.03;;;2.90;;
27857;SDS011;16852;51.446;6.528;2023-04-15T08:42:44;4.03;;;3.38;;
27857;SDS011;16852;51.446;6.528;2023-04-15T08:44:50;4.25;;;3.10;;
27857;SDS011;16852;51.446;6.528;2023-04-15T08:46:52;4.95;;;3.30;;
27857;SDS011;16852;51.446;6.528;2023-04-15T08:48:55;4.25;;;3.47;;
27857;SDS011;16852;51.446;6.528;2023-04-15T08:50:56;5.18;;;3.40;;
27857;SDS011;16852;51.446;6.528;2023-04-15T08:52:58;4.13;;;3.30;;
27857;SDS011;16852;51.446;6.528;2023-04-15T08:54:59;3.72;;;2.92;;
27857;SDS011;16852;51.446;6.528;2023-04-15T08:59:02;3.85;;;3.00;;
27857;SDS011;16852;51.446;6.528;2023-04-15T09:01:04;4.45;;;2.92;;
27857;SDS011;16852;51.446;6.528;2023-04-15T09:03:05;4.35;;;2.60;;
27857;SDS011;16852;51.446;6.528;2023-04-15T09:05:06;3.20;;;2.53;;
27857;SDS011;16852;51.446;6.528;2023-04-15T09:07:07;3.55;;;2.80;;
27857;SDS011;16852;51.446;6.528;2023-04-15T09:09:08;4.07;;;3.05;;
27857;SDS011;16852;51.446;6.528;2023-04-15T09:11:09;3.85;;;2.80;;
27857;SDS011;16852;51.446;6.528;2023-04-15T09:13:10;3.88;;;3.08;;
27857;SDS011;16852;51.446;6.528;2023-04-15T09:15:11;5.30;;;3.65;;
27857;SDS011;16852;51.446;6.528;2023-04-15T09:17:11;4.22;;;3.55;;
27857;SDS011;16852;51.446;6.528;2023-04-15T09:19:22;4.97;;;3.40;;
27857;SDS011;16852;51.446;6.528;2023-04-15T09:21:23;6.32;;;3.90;;
27857;SDS011;16852;51.446;6.528;2023-04-15T09:23:24;3.85;;;3.00;;
27857;SDS011;16852;51.446;6.528;2023-04-15T09:25:25;4.85;;;2.90;;
27857;SDS011;16852;51.446;6.528;2023-04-15T09:27:27;5.13;;;3.50;;
27857;SDS011;16852;51.446;6.528;2023-04-15T09:29:27;4.20;;;2.92;;
27857;SDS011;16852;51.446;6.528;2023-04-15T09:31:28;5.55;;;2.90;;
27857;SDS011;16852;51.446;6.528;2023-04-15T09:33:30;3.83;;;2.70;;
27857;SDS011;16852;51.446;6.528;2023-04-15T09:35:30;3.22;;;2.38;;
27857;SDS011;16852;51.446;6.528;2023-04-15T09:37:34;3.45;;;2.40;;
27857;SDS011;16852;51.446;6.528;2023-04-15T09:39:47;2.60;;;2.30;;
27857;SDS011;16852;51.446;6.528;2023-04-15T09:42:05;4.03;;;2.95;;
27857;SDS011;16852;51.446;6.528;2023-04-15T09:44:06;3.72;;;2.30;;
27857;SDS011;16852;51.446;6.528;2023-04-15T09:46:43;5.68;;;2.97;;
27857;SDS011;16852;51.446;6.528;2023-04-15T09:48:44;4.00;;;3.33;;
27857;SDS011;16852;51.446;6.528;2023-04-15T09:50:45;4.32;;;3.33;;
27857;SDS011;16852;51.446;6.528;2023-04-15T09:52:47;4.20;;;3.15;;
27857;SDS011;16852;51.446;6.528;2023-04-15T09:54:50;4.68;;;3.40;;
27857;SDS011;16852;51.446;6.528;2023-04-15T09:56:54;4.53;;;3.08;;
27857;SDS011;16852;51.446;6.528;2023-04-15T09:58:55;4.45;;;2.90;;
27857;SDS011;16852;51.446;6.528;2023-04-15T10:00:56;4.63;;;3.30;;
27857;SDS011;16852;51.446;6.528;2023-04-15T10:02:58;4.60;;;3.27;;
27857;SDS011;16852;51.446;6.528;2023-04-15T10:04:59;3.90;;;3.05;;
27857;SDS011;16852;51.446;6.528;2023-04-15T10:07:02;4.90;;;3.50;;
27857;SDS011;16852;51.446;6.528;2023-04-15T10:09:04;3.17;;;2.55;;
27857;SDS011;16852;51.446;6.528;2023-04-15T10:11:06;3.95;;;3.10;;
27857;SDS011;16852;51.446;6.528;2023-04-15T10:13:07;5.13;;;3.28;;
27857;SDS011;16852;51.446;6.528;2023-04-15T10:15:13;5.75;;;3.58;;
27857;SDS011;16852;51.446;6.528;2023-04-15T10:17:16;5.47;;;3.95;;
27857;SDS011;16852;51.446;6.528;2023-04-15T10:19:18;4.15;;;3.45;;
27857;SDS011;16852;51.446;6.528;2023-04-15T10:21:25;4.53;;;3.40;;
27857;SDS011;16852;51.446;6.528;2023-04-15T10:23:27;5.55;;;3.65;;
27857;SDS011;16852;51.446;6.528;2023-04-15T10:25:28;5.60;;;3.92;;
27857;SDS011;16852;51.446;6.528;2023-04-15T10:27:29;6.38;;;4.22;;
27857;SDS011;16852;51.446;6.528;2023-04-15T10:29:30;4.88;;;4.00;;
27857;SDS011;16852;51.446;6.528;2023-04-15T10:31:31;5.35;;;3.47;;
27857;SDS011;16852;51.446;6.528;2023-04-15T10:33:32;3.50;;;2.80;;
27857;SDS011;16852;51.446;6.528;2023-04-15T10:35:34;5.28;;;3.45;;
27857;SDS011;16852;51.446;6.528;2023-04-15T10:37:36;6.57;;;3.42;;
27857;SDS011;16852;51.446;6.528;2023-04-15T10:39:38;3.85;;;2.92;;
27857;SDS011;16852;51.446;6.528;2023-04-15T10:41:41;3.95;;;3.00;;
27857;SDS011;16852;51.446;6.528;2023-04-15T10:44:14;4.45;;;2.70;;
27857;SDS011;16852;51.446;6.528;2023-04-15T10:46:08;5.18;;;3.10;;
27857;SDS011;16852;51.446;6.528;2023-04-15T10:48:09;3.88;;;3.05;;
27857;SDS011;16852;51.446;6.528;2023-04-15T10:50:15;4.35;;;3.13;;
27857;SDS011;16852;51.446;6.528;2023-04-15T10:56:23;4.38;;;3.10;;
27857;SDS011;16852;51.446;6.528;2023-04-15T10:58:24;3.78;;;3.00;;
27857;SDS011;16852;51.446;6.528;2023-04-15T11:00:30;3.97;;;2.85;;
27857;SDS011;16852;51.446;6.528;2023-04-15T11:04:53;4.75;;;3.28;;
27857;SDS011;16852;51.446;6.528;2023-04-15T11:07:05;6.70;;;3.20;;
27857;SDS011;16852;51.446;6.528;2023-04-15T11:09:06;4.88;;;3.22;;
27857;SDS011;16852;51.446;6.528;2023-04-15T11:11:08;4.57;;;3.22;;
27857;SDS011;16852;51.446;6.528;2023-04-15T11:17:31;4.78;;;3.38;;
27857;SDS011;16852;51.446;6.528;2023-04-15T11:19:37;4.80;;;3.80;;
27857;SDS011;16852;51.446;6.528;2023-04-15T11:21:38;4.95;;;4.10;;
27857;SDS011;16852;51.446;6.528;2023-04-15T11:23:39;4.85;;;3.60;;
27857;SDS011;16852;51.446;6.528;2023-04-15T11:25:46;5.05;;;4.20;;
27857;SDS011;16852;51.446;6.528;2023-04-15T11:27:47;4.88;;;3.63;;
27857;SDS011;16852;51.446;6.528;2023-04-15T11:29:49;4.20;;;3.47;;
27857;SDS011;16852;51.446;6.528;2023-04-15T11:31:50;3.95;;;3.13;;
27857;SDS011;16852;51.446;6.528;2023-04-15T11:33:58;4.38;;;2.97;;
27857;SDS011;16852;51.446;6.528;2023-04-15T11:35:59;4.28;;;3.60;;
27857;SDS011;16852;51.446;6.528;2023-04-15T11:38:04;4.90;;;2.97;;
27857;SDS011;16852;51.446;6.528;2023-04-15T11:40:07;3.95;;;3.03;;
27857;SDS011;16852;51.446;6.528;2023-04-15T11:42:17;8.73;;;3.30;;
27857;SDS011;16852;51.446;6.528;2023-04-15T11:44:18;4.50;;;3.22;;
27857;SDS011;16852;51.446;6.528;2023-04-15T11:46:19;4.07;;;3.10;;
27857;SDS011;16852;51.446;6.528;2023-04-15T11:48:25;5.53;;;2.95;;
27857;SDS011;16852;51.446;6.528;2023-04-15T11:50:30;5.50;;;2.88;;
27857;SDS011;16852;51.446;6.528;2023-04-15T11:52:31;4.35;;;2.15;;
27857;SDS011;16852;51.446;6.528;2023-04-15T11:54:32;3.75;;;2.72;;
27857;SDS011;16852;51.446;6.528;2023-04-15T11:56:32;4.22;;;2.70;;
27857;SDS011;16852;51.446;6.528;2023-04-15T11:58:33;4.13;;;2.50;;
27857;SDS011;16852;51.446;6.528;2023-04-15T12:00:38;4.10;;;2.63;;
27857;SDS011;16852;51.446;6.528;2023-04-15T12:02:40;3.60;;;2.47;;
27857;SDS011;16852;51.446;6.528;2023-04-15T12:04:40;3.60;;;2.60;;
27857;SDS011;16852;51.446;6.528;2023-04-15T12:06:41;3.70;;;2.80;;
27857;SDS011;16852;51.446;6.528;2023-04-15T12:10:57;4.43;;;3.15;;
27857;SDS011;16852;51.446;6.528;2023-04-15T12:12:58;4.10;;;2.70;;
27857;SDS011;16852;51.446;6.528;2023-04-15T12:14:59;5.10;;;2.83;;
27857;SDS011;16852;51.446;6.528;2023-04-15T12:17:00;3.45;;;2.50;;
27857;SDS011;16852;51.446;6.528;2023-04-15T12:21:10;4.78;;;2.70;;
27857;SDS011;16852;51.446;6.528;2023-04-15T12:23:11;4.55;;;2.58;;
27857;SDS011;16852;51.446;6.528;2023-04-15T12:25:12;3.42;;;2.67;;
27857;SDS011;16852;51.446;6.528;2023-04-15T12:27:14;5.05;;;2.78;;
27857;SDS011;16852;51.446;6.528;2023-04-15T12:29:15;3.95;;;2.88;;
27857;SDS011;16852;51.446;6.528;2023-04-15T12:31:17;4.38;;;2.88;;
27857;SDS011;16852;51.446;6.528;2023-04-15T12:33:18;3.70;;;2.90;;
27857;SDS011;16852;51.446;6.528;2023-04-15T12:35:19;5.25;;;3.25;;
27857;SDS011;16852;51.446;6.528;2023-04-15T12:37:20;4.68;;;3.30;;
27857;SDS011;16852;51.446;6.528;2023-04-15T12:39:21;5.35;;;2.90;;
27857;SDS011;16852;51.446;6.528;2023-04-15T12:41:23;6.88;;;3.53;;
27857;SDS011;16852;51.446;6.528;2023-04-15T12:43:24;4.88;;;3.10;;
27857;SDS011;16852;51.446;6.528;2023-04-15T12:45:25;4.57;;;2.95;;
27857;SDS011;16852;51.446;6.528;2023-04-15T12:47:26;4.78;;;2.83;;
27857;SDS011;16852;51.446;6.528;2023-04-15T12:49:27;4.85;;;2.65;;
27857;SDS011;16852;51.446;6.528;2023-04-15T12:51:27;4.85;;;2.60;;